Time;durP1;ratioP1;P1;durP2;ratioP2;P2;SDS_P1;SDS_P2;PMS_P1;PMS_P2;Temp;Humidity;BMP_temperature;BMP_pressure;BME280_temperature;BME280_humidity;BME280_pressure;Samples;Min_cycle;Max_cycle;Signal;HPM_P1;HPM_P2
2022/12/04 00:00:53;;;;;;;101.97;29.65;;;;;;;-1.61;97.81;95691.53;2041737;29;20055;-55
2022/12/04 00:01:54;;;;;;;91.85;29.40;;;;;;;-1.58;98.21;95689.00;2041202;29;20056;-55
2022/12/04 00:02:56;;;;;;;72.32;25.83;;;;;;;-1.56;97.59;95694.91;2041787;29;20039;-55
2022/12/04 00:03:58;;;;;;;88.70;29.30;;;;;;;-1.62;97.99;95683.94;2041417;29;20060;-55
2022/12/04 00:05:00;;;;;;;101.85;28.55;;;;;;;-1.52;97.75;95692.34;2041672;29;20067;-55
2022/12/04 00:06:02;;;;;;;93.60;29.13;;;;;;;-1.49;97.74;95697.47;2041540;29;20050;-54
2022/12/04 00:07:03;;;;;;;86.05;27.33;;;;;;;-1.58;97.74;95689.00;2041585;29;20479;-55
2022/12/04 00:08:05;;;;;;;91.35;28.52;;;;;;;-1.59;98.29;95702.59;2041418;29;20048;-55
2022/12/04 00:09:06;;;;;;;83.03;28.23;;;;;;;-1.67;97.68;95686.50;2041480;29;20039;-55
2022/12/04 00:10:07;;;;;;;98.53;28.98;;;;;;;-1.52;98.22;95700.00;2041511;29;20047;-54
2022/12/04 00:11:09;;;;;;;102.00;29.38;;;;;;;-1.61;98.14;95688.16;2041471;29;20506;-55
2022/12/04 00:12:10;;;;;;;99.55;29.13;;;;;;;-1.61;97.91;95691.53;2041542;29;20502;-55
2022/12/04 00:13:11;;;;;;;93.70;27.55;;;;;;;-1.64;98.52;95700.91;2041203;29;20103;-56
2022/12/04 00:14:12;;;;;;;99.15;28.60;;;;;;;-1.66;97.86;95697.53;2041429;29;20051;-55
2022/12/04 00:15:14;;;;;;;85.88;27.38;;;;;;;-1.72;97.90;95689.91;2041961;29;20064;-55
2022/12/04 00:16:18;;;;;;;87.03;27.92;;;;;;;-1.66;98.13;95687.34;2041331;29;20380;-55
2022/12/04 00:17:19;;;;;;;96.95;29.42;;;;;;;-1.69;98.16;95687.34;2041399;29;20058;-54
2022/12/04 00:18:20;;;;;;;119.07;30.02;;;;;;;-1.70;97.72;95688.22;2041831;29;20058;-56
2022/12/04 00:19:21;;;;;;;89.85;27.05;;;;;;;-1.81;98.35;95676.38;2041316;29;20408;-55
2022/12/04 00:20:22;;;;;;;102.05;28.60;;;;;;;-1.65;97.94;95691.59;2041572;29;20059;-54
2022/12/04 00:21:24;;;;;;;125.82;30.90;;;;;;;-1.70;98.26;95688.22;2041603;29;20071;-57
2022/12/04 00:22:25;;;;;;;111.10;29.30;;;;;;;-1.68;98.79;95681.44;2048256;29;20134;-58
2022/12/04 00:23:26;;;;;;;78.63;26.70;;;;;;;-1.65;97.68;95692.44;2048337;29;20055;-58
2022/12/04 00:24:27;;;;;;;122.40;31.60;;;;;;;-1.67;98.35;95691.59;2041931;29;20044;-58
2022/12/04 00:25:29;;;;;;;98.10;31.70;;;;;;;-1.59;98.51;95681.38;2041578;29;20067;-58
2022/12/04 00:26:30;;;;;;;95.07;27.95;;;;;;;-1.68;97.88;95669.53;2041625;29;20047;-55
2022/12/04 00:27:31;;;;;;;104.47;29.60;;;;;;;-1.69;98.86;95688.19;2041201;29;20055;-55
2022/12/04 00:28:33;;;;;;;94.50;28.60;;;;;;;-1.72;98.26;95670.38;2041249;29;20052;-54
2022/12/04 00:29:34;;;;;;;109.38;31.65;;;;;;;-1.62;98.48;95689.03;2041071;29;20052;-55
2022/12/04 00:30:40;;;;;;;103.85;30.90;;;;;;;-1.63;98.26;95687.31;2041052;29;20495;-55
2022/12/04 00:31:41;;;;;;;93.80;28.20;;;;;;;-1.62;98.48;95686.47;2041585;29;20071;-55
2022/12/04 00:32:42;;;;;;;115.28;29.33;;;;;;;-1.66;98.33;95690.72;2041380;29;20059;-55
2022/12/04 00:33:43;;;;;;;104.38;28.85;;;;;;;-1.72;98.49;95692.47;2041483;29;20043;-55
2022/12/04 00:34:44;;;;;;;124.30;30.88;;;;;;;-1.74;98.21;95683.97;2041240;29;20059;-54
2022/12/04 00:35:45;;;;;;;99.47;28.55;;;;;;;-1.74;98.13;95695.00;2041384;29;20070;-55
2022/12/04 00:36:46;;;;;;;84.72;26.75;;;;;;;-1.65;99.14;95692.44;2041399;29;20056;-56
2022/12/04 00:37:48;;;;;;;99.57;30.85;;;;;;;-1.54;98.55;95694.09;2041193;29;20174;-54
2022/12/04 00:38:49;;;;;;;103.50;30.42;;;;;;;-1.46;98.36;95697.44;2040789;29;20060;-52
2022/12/04 00:39:50;;;;;;;76.72;27.35;;;;;;;-1.43;98.25;95692.31;2042030;29;20060;-56
2022/12/04 00:40:51;;;;;;;73.88;27.92;;;;;;;-1.44;98.22;95693.19;2041320;29;20063;-54
2022/12/04 00:41:52;;;;;;;83.32;26.83;;;;;;;-1.46;98.42;95693.19;2041623;29;20052;-62
2022/12/04 00:42:53;;;;;;;86.97;28.23;;;;;;;-1.44;97.95;95698.28;2041622;29;20046;-62
2022/12/04 00:43:54;;;;;;;87.22;28.60;;;;;;;-1.40;97.88;95698.25;2041485;29;20487;-63
2022/12/04 00:44:55;;;;;;;91.20;28.85;;;;;;;-1.37;98.01;95697.38;2041735;29;20051;-62
2022/12/04 00:45:57;;;;;;;91.68;29.13;;;;;;;-1.39;97.90;95691.44;2041634;29;20067;-62
2022/12/04 00:46:58;;;;;;;90.55;29.08;;;;;;;-1.44;97.63;95696.56;2040955;29;20484;-62
2022/12/04 00:47:59;;;;;;;104.18;31.60;;;;;;;-1.47;97.41;95698.28;2041054;29;20058;-62
2022/12/04 00:49:01;;;;;;;94.25;29.90;;;;;;;-1.53;97.80;95691.50;2041679;29;20051;-62
2022/12/04 00:50:02;;;;;;;88.72;27.70;;;;;;;-1.56;98.52;95697.47;2041594;29;20052;-62
2022/12/04 00:51:04;;;;;;;87.82;28.55;;;;;;;-1.67;98.35;95675.47;2041185;29;20051;-61
2022/12/04 00:52:05;;;;;;;104.75;30.73;;;;;;;-1.52;98.26;95698.31;2042055;29;20380;-60
2022/12/04 00:53:06;;;;;;;93.07;28.10;;;;;;;-1.49;97.68;95697.47;2043102;29;20314;-62
2022/12/04 00:54:07;;;;;;;77.43;26.60;;;;;;;-1.49;98.72;95702.56;2042981;29;20055;-62
2022/12/04 00:55:09;;;;;;;111.10;30.80;;;;;;;-1.58;98.08;95701.75;2043341;29;20060;-61
2022/12/04 00:56:16;;;;;;;97.07;30.73;;;;;;;-1.61;98.07;95706.81;2042760;29;20051;-62
2022/12/04 00:57:17;;;;;;;77.72;28.90;;;;;;;-1.49;98.40;95702.56;2042672;29;20048;-62
2022/12/04 00:58:18;;;;;;;83.07;27.63;;;;;;;-1.50;97.46;95696.59;2042976;29;20044;-60
2022/12/04 00:59:19;;;;;;;100.47;30.08;;;;;;;-1.48;98.54;95709.31;2042934;29;20415;-60
2022/12/04 01:00:20;;;;;;;90.10;28.70;;;;;;;-1.56;98.18;95709.38;2042325;29;20062;-62
2022/12/04 01:01:21;;;;;;;93.15;30.42;;;;;;;-1.54;97.83;95697.47;2043048;29;20499;-61
2022/12/04 01:02:23;;;;;;;109.32;29.60;;;;;;;-1.52;98.33;95703.41;2042288;29;20067;-61
2022/12/04 01:03:24;;;;;;;98.57;31.58;;;;;;;-1.51;98.47;95697.44;2042510;29;20058;-61
2022/12/04 01:04:25;;;;;;;97.13;30.20;;;;;;;-1.46;97.93;95702.53;2042584;29;20063;-61
2022/12/04 01:05:26;;;;;;;98.88;29.20;;;;;;;-1.47;97.64;95700.81;2043146;29;20392;-61
2022/12/04 01:06:29;;;;;;;104.97;30.77;;;;;;;-1.57;98.03;95684.75;2042655;29;20060;-56
2022/12/04 01:07:30;;;;;;;119.63;31.92;;;;;;;-1.67;97.76;95689.03;2042597;29;20047;-56
2022/12/04 01:08:31;;;;;;;113.97;30.40;;;;;;;-1.60;98.04;95693.25;2042979;29;20051;-56
2022/12/04 01:09:32;;;;;;;97.65;29.17;;;;;;;-1.49;97.93;95702.56;2042598;29;20055;-56
2022/12/04 01:10:33;;;;;;;113.05;29.25;;;;;;;-1.50;98.16;95701.69;2042334;29;20444;-56
2022/12/04 01:11:34;;;;;;;101.47;29.38;;;;;;;-1.57;97.57;95698.34;2042842;29;20048;-55
2022/12/04 01:12:36;;;;;;;95.85;27.83;;;;;;;-1.53;97.97;95700.84;2041437;29;20052;-56
2022/12/04 01:13:37;;;;;;;106.07;31.10;;;;;;;-1.44;98.16;95698.28;2041969;29;20427;-55
2022/12/04 01:14:38;;;;;;;98.25;29.80;;;;;;;-1.43;98.36;95698.25;2042688;29;20062;-55
2022/12/04 01:15:40;;;;;;;97.45;27.88;;;;;;;-1.43;98.26;95698.25;2042663;29;20060;-55
2022/12/04 01:16:41;;;;;;;105.28;30.52;;;;;;;-1.41;98.72;95693.16;2042228;29;20063;-55
2022/12/04 01:17:44;;;;;;;126.78;30.52;;;;;;;-1.41;97.40;95691.47;2042839;29;20063;-55
2022/12/04 01:18:45;;;;;;;97.32;30.40;;;;;;;-1.39;98.21;95691.44;2042395;29;20059;-56
2022/12/04 01:19:46;;;;;;;110.07;32.10;;;;;;;-1.36;97.29;95694.84;2042901;29;20054;-56
2022/12/04 01:20:48;;;;;;;87.95;27.92;;;;;;;-1.39;98.56;95702.50;2042853;29;20051;-55
2022/12/04 01:21:49;;;;;;;102.80;28.33;;;;;;;-1.37;97.51;95707.56;2042715;29;20079;-60
2022/12/04 01:22:50;;;;;;;105.63;30.65;;;;;;;-1.35;98.44;95696.50;2042680;29;20062;-59
2022/12/04 01:23:51;;;;;;;104.57;30.52;;;;;;;-1.28;97.61;95697.34;2042988;29;20056;-60
2022/12/04 01:24:55;;;;;;;115.85;31.02;;;;;;;-1.34;97.75;95690.59;2042507;29;20059;-60
2022/12/04 01:25:57;;;;;;;86.53;28.67;;;;;;;-1.27;97.90;95696.47;2042447;29;20051;-58
2022/12/04 01:26:58;;;;;;;92.15;28.67;;;;;;;-1.34;97.30;95694.81;2042710;29;20054;-55
2022/12/04 01:27:59;;;;;;;83.15;28.10;;;;;;;-1.35;97.57;95693.13;2042894;29;20055;-55
2022/12/04 01:29:00;;;;;;;85.13;26.13;;;;;;;-1.36;97.51;95699.09;2042891;29;20044;-55
2022/12/04 01:30:02;;;;;;;81.80;27.88;;;;;;;-1.38;97.53;95699.09;2042727;29;20059;-55
2022/12/04 01:31:07;;;;;;;66.85;24.90;;;;;;;-1.33;98.11;95702.44;2041615;29;20055;-55
2022/12/04 01:32:09;;;;;;;76.85;25.55;;;;;;;-1.38;97.46;95700.78;2042063;29;20500;-55
2022/12/04 01:33:10;;;;;;;97.95;29.15;;;;;;;-1.36;98.38;95697.38;2042558;29;20059;-56
2022/12/04 01:34:11;;;;;;;77.72;26.40;;;;;;;-1.36;97.84;95704.19;2042658;29;20055;-55
2022/12/04 01:35:12;;;;;;;75.22;27.10;;;;;;;-1.40;97.96;95689.75;2045269;29;20492;-54
2022/12/04 01:36:15;;;;;;;92.35;28.08;;;;;;;-1.49;97.56;95687.28;2042242;29;20051;-55
2022/12/04 01:37:16;;;;;;;110.25;29.58;;;;;;;-1.39;97.71;95704.16;2042569;29;20054;-56
2022/12/04 01:38:17;;;;;;;91.72;27.88;;;;;;;-1.38;98.47;95704.19;2042423;29;20051;-55
2022/12/04 01:39:18;;;;;;;79.40;27.50;;;;;;;-1.45;97.69;95694.03;2042730;29;20492;-55
2022/12/04 01:40:19;;;;;;;80.38;25.70;;;;;;;-1.28;97.51;95707.53;2041855;29;20059;-56
2022/12/04 01:41:22;;;;;;;73.18;25.30;;;;;;;-1.27;97.27;95704.13;2042095;29;20052;-55
2022/12/04 01:42:23;;;;;;;70.50;25.65;;;;;;;-1.31;97.17;95702.47;2041873;29;20463;-55
2022/12/04 01:43:25;;;;;;;63.97;23.42;;;;;;;-1.20;97.26;95703.22;2042592;29;20059;-56
2022/12/04 01:44:26;;;;;;;70.57;25.63;;;;;;;-1.32;97.36;95698.19;2041917;29;20063;-55
2022/12/04 01:45:29;;;;;;;77.43;25.23;;;;;;;-1.35;97.57;95708.41;2042056;29;20066;-55
2022/12/04 01:46:30;;;;;;;73.38;25.42;;;;;;;-1.45;97.30;95694.88;2042060;29;20055;-61
2022/12/04 01:47:32;;;;;;;72.13;26.30;;;;;;;-1.36;97.69;95710.13;2042218;29;20063;-61
2022/12/04 01:48:44;;;;;;;81.93;26.35;;;;;;;-1.31;97.28;95704.13;2042666;29;20079;-61
2022/12/04 01:49:46;;;;;;;91.50;28.48;;;;;;;-1.43;97.35;95688.06;2041684;29;20056;-61
2022/12/04 01:50:48;;;;;;;86.50;27.95;;;;;;;-1.30;97.67;95699.03;2033959;29;20052;-62
2022/12/04 01:51:51;;;;;;;78.80;27.65;;;;;;;-1.26;97.22;95697.31;2041868;29;20051;-61
2022/12/04 01:52:53;;;;;;;86.05;26.75;;;;;;;-1.21;97.05;95698.97;2042332;29;20056;-60
2022/12/04 01:53:59;;;;;;;85.18;25.90;;;;;;;-1.23;98.22;95695.63;2042651;29;20504;-61
2022/12/04 01:55:00;;;;;;;99.25;28.73;;;;;;;-1.35;98.04;95677.84;2042514;29;20048;-61
2022/12/04 01:56:01;;;;;;;84.63;27.83;;;;;;;-1.26;97.64;95689.66;2042678;29;20043;-61
2022/12/04 01:57:20;;;;;;;85.03;27.58;;;;;;;-1.15;97.56;95690.44;2041723;29;20062;-62
2022/12/04 01:58:23;;;;;;;92.25;28.50;;;;;;;-1.23;97.34;95680.31;2036320;29;20059;-61
2022/12/04 01:59:27;;;;;;;69.75;25.35;;;;;;;-1.22;97.37;95679.47;2027996;29;20091;-62
2022/12/04 02:00:28;;;;;;;77.90;26.25;;;;;;;-1.10;97.20;95681.06;2034019;29;20060;-61
2022/12/04 02:01:31;;;;;;;73.55;25.60;;;;;;;-1.26;97.15;95670.13;2049408;29;20456;-61
2022/12/04 02:02:36;;;;;;;82.57;27.52;;;;;;;-1.33;97.13;95674.44;2042446;29;20043;-61
2022/12/04 02:03:37;;;;;;;71.78;25.30;;;;;;;-1.26;97.66;95677.78;2041998;29;20060;-61
2022/12/04 02:04:39;;;;;;;89.60;27.80;;;;;;;-1.36;97.50;95659.16;2041430;29;20060;-61
2022/12/04 02:05:40;;;;;;;76.80;26.45;;;;;;;-1.21;97.18;95673.50;2026171;29;20436;-61
2022/12/04 02:06:41;;;;;;;91.95;27.60;;;;;;;-1.21;98.04;95663.31;2033634;29;20094;-61
2022/12/04 02:07:42;;;;;;;87.80;27.55;;;;;;;-1.29;97.57;95664.22;2041950;29;20051;-62
2022/12/04 02:08:43;;;;;;;78.95;27.13;;;;;;;-1.17;97.73;95674.34;2041581;29;20056;-61
2022/12/04 02:09:52;;;;;;;88.53;26.85;;;;;;;-1.10;97.56;95673.41;2041338;29;20163;-62
2022/12/04 02:11:08;;;;;;;87.70;28.15;;;;;;;-1.11;97.50;95675.13;2041660;29;20051;-62
2022/12/04 02:12:31;;;;;;;81.47;26.10;;;;;;;-1.01;97.11;95669.97;2042064;29;20078;-62
2022/12/04 02:13:46;;;;;;;77.38;27.02;;;;;;;-1.06;97.38;95666.63;2041670;29;20059;-61
2022/12/04 02:15:06;;;;;;;81.55;25.52;;;;;;;-1.10;97.15;95681.06;2029878;29;20400;-62
2022/12/04 02:16:16;;;;;;;78.53;27.42;;;;;;;-1.08;97.58;95678.53;2036888;29;20047;-61
2022/12/04 02:17:39;;;;;;;68.93;24.00;;;;;;;-1.05;96.79;95674.22;2041728;29;20046;-62
2022/12/04 02:18:48;;;;;;;81.22;24.90;;;;;;;-1.14;96.99;95659.88;2041214;29;20060;-62
2022/12/04 02:20:03;;;;;;;80.80;27.10;;;;;;;-1.13;96.88;95661.53;2041519;29;20059;-61
2022/12/04 02:21:13;;;;;;;77.97;26.40;;;;;;;-1.21;97.17;95665.84;2036159;29;20519;-61
2022/12/04 02:22:27;;;;;;;82.53;27.02;;;;;;;-1.21;97.54;95660.75;2041671;29;20047;-62
2022/12/04 02:23:46;;;;;;;110.57;29.23;;;;;;;-1.17;97.61;95654.78;2035389;29;20056;-61
2022/12/04 02:25:11;;;;;;;75.53;26.55;;;;;;;-1.05;97.63;95658.94;2041622;29;20055;-61
2022/12/04 02:26:25;;;;;;;103.18;29.40;;;;;;;-1.09;97.58;95657.28;2041833;29;20040;-61
2022/12/04 02:27:38;;;;;;;84.70;26.58;;;;;;;-1.17;97.08;95649.69;2035808;29;20052;-62
2022/12/04 02:28:56;;;;;;;88.90;26.17;;;;;;;-1.23;97.35;95638.69;2035597;29;20044;-62
2022/12/04 02:30:05;;;;;;;79.85;26.27;;;;;;;-1.22;97.31;95642.94;2036314;29;20066;-62
2022/12/04 02:31:07;;;;;;;93.35;27.83;;;;;;;-1.28;98.01;95648.94;2034497;29;20071;-61
2022/12/04 02:32:16;;;;;;;81.97;27.83;;;;;;;-1.21;97.93;95659.91;2026649;29;20049;-62
2022/12/04 02:33:18;;;;;;;91.55;29.15;;;;;;;-1.18;97.94;95654.78;2027642;29;20067;-61
2022/12/04 02:34:28;;;;;;;99.18;29.50;;;;;;;-1.37;98.15;95628.59;2041404;29;20056;-62
2022/12/04 02:35:35;;;;;;;81.40;27.25;;;;;;;-1.30;97.83;95639.59;2041606;29;20070;-62
2022/12/04 02:36:42;;;;;;;89.18;28.25;;;;;;;-1.29;97.97;95648.94;2034813;29;20063;-62
2022/12/04 02:37:45;;;;;;;84.47;27.65;;;;;;;-1.24;97.67;95648.03;2037245;29;20055;-61
2022/12/04 02:38:52;;;;;;;80.15;27.30;;;;;;;-1.21;97.49;95635.28;2033790;29;20048;-62
2022/12/04 02:40:24;;;;;;;89.30;29.38;;;;;;;-1.35;97.63;95627.72;2034484;29;20154;-61
2022/12/04 02:41:33;;;;;;;90.38;27.55;;;;;;;-1.30;98.14;95627.72;2037218;29;20090;-61
2022/12/04 02:42:40;;;;;;;96.70;30.08;;;;;;;-1.31;98.10;95640.44;2039973;29;20484;-61
2022/12/04 02:43:53;;;;;;;92.43;28.98;;;;;;;-1.37;97.73;95633.69;2026348;29;20524;-62
2022/12/04 02:45:02;;;;;;;102.20;28.98;;;;;;;-1.48;98.17;95636.31;2020933;29;20056;-61
2022/12/04 02:46:06;;;;;;;90.82;29.02;;;;;;;-1.38;98.76;95647.28;2021681;29;20044;-61
2022/12/04 02:47:10;;;;;;;92.97;30.30;;;;;;;-1.37;98.05;95646.44;2027211;29;20493;-62
2022/12/04 02:48:14;;;;;;;79.38;27.25;;;;;;;-1.38;98.85;95624.38;2034121;29;20036;-62
2022/12/04 02:49:18;;;;;;;84.32;29.40;;;;;;;-1.28;98.76;95633.66;2026299;29;20059;-62
2022/12/04 02:50:21;;;;;;;95.07;29.23;;;;;;;-1.43;97.97;95618.47;2018998;29;20100;-62
2022/12/04 02:51:22;;;;;;;80.60;27.25;;;;;;;-1.42;98.15;95618.44;2033811;29;20508;-62
2022/12/04 02:52:27;;;;;;;105.05;30.02;;;;;;;-1.35;98.29;95625.19;2041272;29;20377;-62
2022/12/04 02:53:33;;;;;;;96.72;29.45;;;;;;;-1.31;98.62;95632.81;2049108;29;20062;-62
2022/12/04 02:54:36;;;;;;;126.72;33.85;;;;;;;-1.37;98.01;95638.78;2047850;29;20472;-62
2022/12/04 02:55:41;;;;;;;117.60;31.73;;;;;;;-1.39;98.15;95626.06;2032743;29;20427;-62
2022/12/04 02:56:43;;;;;;;125.07;31.35;;;;;;;-1.43;98.74;95633.75;2018865;29;20061;-60
2022/12/04 02:57:46;;;;;;;121.95;34.92;;;;;;;-1.52;98.31;95621.03;2025918;29;20068;-60
2022/12/04 02:58:50;;;;;;;117.82;30.50;;;;;;;-1.49;98.60;95615.97;2033656;29;20056;-60
2022/12/04 02:59:51;;;;;;;98.50;30.85;;;;;;;-1.36;98.51;95622.66;2026281;29;20068;-60
2022/12/04 03:00:52;;;;;;;91.32;29.50;;;;;;;-1.35;98.45;95630.28;2026113;29;20040;-59
2022/12/04 03:01:55;;;;;;;111.82;32.25;;;;;;;-1.49;98.59;95604.06;2025592;29;20056;-60
2022/12/04 03:03:07;;;;;;;101.65;30.77;;;;;;;-1.52;98.85;95608.31;2033366;29;20048;-60
2022/12/04 03:04:14;;;;;;;101.53;29.10;;;;;;;-1.40;98.25;95618.44;2027274;29;20052;-60
2022/12/04 03:05:17;;;;;;;95.30;30.83;;;;;;;-1.37;98.89;95626.03;2027408;29;20059;-60
2022/12/04 03:06:18;;;;;;;106.28;31.95;;;;;;;-1.59;98.66;95600.72;2041273;29;20059;-59
2022/12/04 03:07:23;;;;;;;94.95;29.90;;;;;;;-1.38;98.57;95616.72;2041965;29;20392;-60
2022/12/04 03:08:27;;;;;;;102.05;31.80;;;;;;;-1.40;98.69;95611.63;2041540;29;20484;-60
2022/12/04 03:09:36;;;;;;;109.18;32.28;;;;;;;-1.38;98.99;95612.47;2041233;29;20068;-60
2022/12/04 03:10:40;;;;;;;101.30;31.30;;;;;;;-1.48;98.69;95607.44;2034134;29;20107;-59
2022/12/04 03:11:44;;;;;;;109.70;32.95;;;;;;;-1.38;98.13;95619.28;2026721;29;20049;-59
2022/12/04 03:13:05;;;;;;;107.45;32.80;;;;;;;-1.36;98.78;95620.97;2034550;29;20044;-59
2022/12/04 03:14:13;;;;;;;102.22;30.45;;;;;;;-1.43;98.33;95621.00;2032970;29;20060;-59
2022/12/04 03:15:18;;;;;;;80.72;26.92;;;;;;;-1.43;98.42;95610.81;2029237;29;20047;-59
2022/12/04 03:16:22;;;;;;;91.20;30.27;;;;;;;-1.45;98.69;95618.47;2041365;29;20060;-60
2022/12/04 03:17:32;;;;;;;97.75;32.53;;;;;;;-1.41;98.25;95624.41;2041161;29;20527;-60
2022/12/04 03:18:36;;;;;;;105.75;31.98;;;;;;;-1.43;98.96;95618.47;2026880;29;20441;-60
2022/12/04 03:19:43;;;;;;;106.13;31.88;;;;;;;-1.44;98.52;95619.31;2026743;29;20064;-60
2022/12/04 03:20:46;;;;;;;97.53;30.80;;;;;;;-1.52;98.68;95611.72;2026140;29;20101;-59
2022/12/04 03:22:04;;;;;;;90.63;30.95;;;;;;;-1.42;98.75;95625.22;2018471;29;20053;-60
2022/12/04 03:23:10;;;;;;;85.32;27.40;;;;;;;-1.44;98.39;95624.41;2021707;29;20424;-59
2022/12/04 03:24:26;;;;;;;80.75;29.00;;;;;;;-1.48;98.69;95610.00;2028773;29;20044;-59
2022/12/04 03:25:33;;;;;;;94.53;30.52;;;;;;;-1.47;98.52;95611.69;2035383;29;20056;-60
2022/12/04 03:26:43;;;;;;;87.05;29.00;;;;;;;-1.46;98.75;95605.75;2036975;29;20040;-62
2022/12/04 03:27:57;;;;;;;95.82;27.77;;;;;;;-1.41;98.21;95626.94;2041605;29;20043;-62
2022/12/04 03:29:01;;;;;;;87.03;28.95;;;;;;;-1.37;98.45;95628.59;2041287;29;20047;-62
2022/12/04 03:30:17;;;;;;;93.45;29.17;;;;;;;-1.36;98.38;95618.41;2041226;29;20419;-62
2022/12/04 03:31:23;;;;;;;89.72;28.85;;;;;;;-1.33;98.50;95620.09;2040381;29;20515;-62
2022/12/04 03:32:44;;;;;;;101.82;29.98;;;;;;;-1.33;98.27;95620.09;2027029;29;20048;-62
2022/12/04 03:33:45;;;;;;;95.82;29.23;;;;;;;-1.31;98.65;95618.38;2035799;29;20059;-62
2022/12/04 03:34:58;;;;;;;99.07;30.77;;;;;;;-1.21;98.50;95625.06;2027890;29;20056;-62
2022/12/04 03:36:05;;;;;;;110.97;30.45;;;;;;;-1.22;98.24;95631.03;2027831;29;20067;-62
2022/12/04 03:37:12;;;;;;;122.50;31.80;;;;;;;-1.32;97.75;95609.03;2034398;29;20044;-62
2022/12/04 03:38:30;;;;;;;113.32;32.20;;;;;;;-1.32;98.25;95619.22;2033507;29;20067;-62
2022/12/04 03:39:42;;;;;;;126.95;33.92;;;;;;;-1.33;98.07;95612.44;2035028;29;20052;-62
2022/12/04 03:41:11;;;;;;;129.48;30.20;;;;;;;-1.22;98.72;95627.66;2037348;29;20036;-62
2022/12/04 03:42:19;;;;;;;108.43;31.88;;;;;;;-1.20;98.17;95623.41;2036989;29;20546;-59
2022/12/04 03:43:23;;;;;;;119.30;33.22;;;;;;;-1.18;98.72;95630.16;2041376;29;20052;-59
2022/12/04 03:44:45;;;;;;;104.15;32.08;;;;;;;-1.14;98.55;95631.00;2040831;29;20050;-59
2022/12/04 03:45:58;;;;;;;98.50;31.02;;;;;;;-1.14;98.11;95638.63;2028143;29;20515;-59
2022/12/04 03:47:07;;;;;;;95.90;29.20;;;;;;;-1.24;98.70;95622.56;2028851;29;20048;-59
2022/12/04 03:48:24;;;;;;;138.68;34.20;;;;;;;-1.31;98.25;95620.06;2034584;29;20048;-58
2022/12/04 03:49:45;;;;;;;86.78;28.35;;;;;;;-1.25;98.72;95625.13;2041158;29;20058;-59
2022/12/04 03:51:03;;;;;;;107.22;30.63;;;;;;;-1.32;98.11;95619.22;2040217;29;20062;-63
2022/12/04 03:52:13;;;;;;;126.93;34.08;;;;;;;-1.15;98.71;95637.81;2035880;29;20471;-60
2022/12/04 03:53:31;;;;;;;110.82;33.30;;;;;;;-1.16;98.27;95636.09;2040775;29;20055;-60
2022/12/04 03:54:35;;;;;;;131.18;32.40;;;;;;;-1.27;98.06;95630.22;2040212;29;20434;-60
2022/12/04 03:55:55;;;;;;;108.13;32.10;;;;;;;-1.10;98.79;95630.09;2026331;29;20078;-60
2022/12/04 03:56:59;;;;;;;103.05;30.65;;;;;;;-1.17;98.58;95629.31;2030444;29;20068;-60
2022/12/04 03:58:03;;;;;;;95.28;30.27;;;;;;;-1.17;98.76;95636.13;2025289;29;20072;-60
2022/12/04 03:59:26;;;;;;;88.60;30.20;;;;;;;-1.23;98.42;95623.41;2026606;29;20049;-60
2022/12/04 04:00:27;;;;;;;79.53;26.35;;;;;;;-1.18;98.54;95634.41;2041019;29;20040;-60
2022/12/04 04:01:33;;;;;;;80.50;28.08;;;;;;;-1.14;98.05;95626.75;2033127;29;20052;-60
2022/12/04 04:02:36;;;;;;;80.38;28.85;;;;;;;-1.13;98.38;95625.03;2025796;29;20063;-60
2022/12/04 04:03:40;;;;;;;85.05;29.13;;;;;;;-1.07;97.88;95622.41;2033750;29;20055;-60
2022/12/04 04:04:41;;;;;;;91.97;31.15;;;;;;;-1.11;97.87;95620.78;2041481;29;20066;-60
2022/12/04 04:05:47;;;;;;;80.78;28.73;;;;;;;-1.09;97.89;95618.22;2040295;29;20507;-60
2022/12/04 04:06:52;;;;;;;87.65;29.58;;;;;;;-1.20;98.20;95616.59;2033656;29;20052;-54
2022/12/04 04:07:55;;;;;;;128.35;33.53;;;;;;;-1.21;98.04;95601.31;2033722;29;20056;-56
2022/12/04 04:08:59;;;;;;;100.80;31.85;;;;;;;-1.09;98.37;95610.56;2033487;29;20056;-55
2022/12/04 04:10:05;;;;;;;108.40;33.10;;;;;;;-1.16;98.02;95609.75;2033533;29;20496;-56
2022/12/04 04:11:29;;;;;;;90.47;30.23;;;;;;;-1.11;97.94;95608.03;2026093;29;20056;-56
2022/12/04 04:12:32;;;;;;;100.57;29.65;;;;;;;-1.31;97.99;95594.59;2039098;29;20059;-55
2022/12/04 04:24:29;;;;;;;91.05;28.05;;;;;;;-1.06;98.00;95624.13;2037141;29;20070;-57
2022/12/04 04:25:30;;;;;;;81.90;28.05;;;;;;;-1.10;98.02;95625.00;2041434;29;20050;-56
2022/12/04 04:26:33;;;;;;;95.13;29.38;;;;;;;-1.12;97.78;95624.19;2040947;29;20063;-56
2022/12/04 04:27:34;;;;;;;102.78;29.45;;;;;;;-1.11;97.92;95623.31;2042051;29;20515;-56
2022/12/04 04:28:37;;;;;;;85.13;29.20;;;;;;;-1.15;98.38;95619.97;2042763;29;20063;-55
2022/12/04 04:29:38;;;;;;;101.45;29.67;;;;;;;-1.18;98.33;95624.22;2043199;29;20036;-55
2022/12/04 04:30:39;;;;;;;91.47;28.77;;;;;;;-1.16;97.74;95620.78;2042559;29;20051;-55
2022/12/04 04:31:48;;;;;;;103.22;31.05;;;;;;;-1.10;97.78;95614.81;2041808;29;20107;-62
2022/12/04 04:33:06;;;;;;;;;;;;;;;-1.14;98.47;95621.63;2042715;29;20074;-62
2022/12/04 04:34:41;;;;;;;73.15;26.33;;;;;;;-1.12;98.42;95622.47;2044395;29;19923;-62
2022/12/04 04:35:48;;;;;;;98.97;27.58;;;;;;;-1.12;97.75;95619.94;2042439;29;20373;-62
2022/12/04 04:37:00;;;;;;;117.18;31.17;;;;;;;-1.13;97.80;95618.22;2043056;29;20388;-62
2022/12/04 04:38:21;;;;;;;86.13;27.45;;;;;;;-1.18;97.61;95612.31;2045200;29;20039;-62
2022/12/04 04:39:31;;;;;;;80.10;25.52;;;;;;;-1.17;98.10;95618.28;2013380;29;20048;-62
2022/12/04 04:40:38;;;;;;;81.32;27.48;;;;;;;-1.15;98.16;95611.44;2032973;29;20062;-62
2022/12/04 04:41:43;;;;;;;78.60;27.48;;;;;;;-1.06;97.87;95629.22;2036290;29;20058;-62
2022/12/04 04:43:02;;;;;;;97.22;28.73;;;;;;;-1.07;97.74;95622.41;2034257;29;20408;-62
2022/12/04 04:44:17;;;;;;;89.25;28.63;;;;;;;-1.04;98.25;95621.56;2031586;29;20059;-62
2022/12/04 04:45:24;;;;;;;92.50;26.83;;;;;;;-1.13;98.30;95609.75;2036692;29;20067;-61
2022/12/04 04:46:30;;;;;;;95.10;29.58;;;;;;;-1.15;97.95;95609.75;2030159;29;20055;-62
2022/12/04 04:47:34;;;;;;;94.55;28.73;;;;;;;-1.16;98.44;95615.69;2028000;29;20064;-61
2022/12/04 04:48:44;;;;;;;70.55;26.73;;;;;;;-1.03;98.07;95618.16;2035160;29;20056;-62
2022/12/04 04:49:45;;;;;;;73.90;26.17;;;;;;;-0.96;98.13;95612.16;2027056;29;20063;-62
2022/12/04 04:50:46;;;;;;;85.50;29.00;;;;;;;-1.09;98.02;95606.31;2026792;29;20057;-62
2022/12/04 04:51:47;;;;;;;79.50;28.13;;;;;;;-1.05;98.38;95617.31;2034350;29;20063;-59
2022/12/04 04:52:50;;;;;;;78.35;27.45;;;;;;;-1.07;97.55;95624.13;2042490;29;20063;-59
2022/12/04 04:53:53;;;;;;;86.28;28.35;;;;;;;-1.16;97.88;95625.06;2049636;29;20052;-59
2022/12/04 04:54:54;;;;;;;82.95;28.23;;;;;;;-1.23;98.19;95615.75;2049360;29;20048;-59
2022/12/04 04:55:55;;;;;;;126.03;32.90;;;;;;;-1.12;97.94;95621.63;2034404;29;20401;-59
2022/12/04 04:56:57;;;;;;;97.88;30.15;;;;;;;-1.14;97.83;95623.34;2042044;29;20420;-59
2022/12/04 04:58:05;;;;;;;98.32;27.50;;;;;;;-1.19;98.35;95605.53;2042824;29;20062;-59
2022/12/04 04:59:06;;;;;;;92.20;28.35;;;;;;;-1.09;98.07;95624.16;2042519;29;20052;-59
2022/12/04 05:00:10;;;;;;;73.75;27.38;;;;;;;-0.99;98.06;95622.38;2042204;29;20051;-59
2022/12/04 05:01:22;;;;;;;81.72;27.00;;;;;;;-1.03;98.19;95605.41;2042827;29;20039;-59
2022/12/04 05:02:24;;;;;;;94.18;28.05;;;;;;;-0.98;98.60;95613.88;2042355;29;20066;-59
2022/12/04 05:03:26;;;;;;;91.03;29.88;;;;;;;-1.01;97.96;95629.19;2042372;29;20060;-59
2022/12/04 05:04:27;;;;;;;91.18;29.00;;;;;;;-0.92;97.97;95624.84;2042626;29;20059;-59
2022/12/04 05:05:28;;;;;;;108.40;29.38;;;;;;;-0.90;98.09;95627.41;2042681;29;20064;-59
2022/12/04 05:06:29;;;;;;;99.55;28.15;;;;;;;-1.01;97.66;95624.09;2042327;29;20062;-65
2022/12/04 05:07:30;;;;;;;97.68;29.48;;;;;;;-1.01;98.18;95624.09;2042001;29;20074;-65
2022/12/04 05:08:32;;;;;;;97.75;29.13;;;;;;;-1.03;97.75;95628.38;2042634;29;20060;-64
2022/12/04 05:09:33;;;;;;;97.22;26.83;;;;;;;-1.13;97.73;95625.88;2042681;29;20043;-64
2022/12/04 05:10:34;;;;;;;86.65;29.30;;;;;;;-1.13;97.55;95625.88;2042926;29;20070;-64